Sand Spring Valley, Nevada Weather observations

Data are for 10 minute period ending at time listed.
 Day   Time   Solar   Ave.   Ave.  Ave.  Vector  Max.   Baro.   Total    
  of    of     Rad.   Air    Rel.  Wind   Wind   Wind  Press.  Precip.   
Year   Day            Temp.  Hum.  Speed  Dir.   Gust                    
2015   (PST)  Kw/m2    F      %     mph   deg.    mph    mb.     in.     
-------------------------------------------------------------------------
 144   10:00   0.00   61.6    48    3.7    68     9.2   851.2    0.00 
 144   10:10   0.00   62.0    49    2.5    27     7.4   851.1    0.00 
 144   10:20   0.00   61.6    50    2.6   281     6.4   851.1    0.00 
 144   10:30   0.00   62.5    52    3.0   289     6.4   851.0    0.00 
 144   10:40   0.00   62.6    52    3.2   269     7.0   850.9    0.00 
 144   10:50   0.00   63.0    45    5.4   351     9.2   851.0    0.00 
 144   11:00   0.00   63.0    44    3.3   331     7.6   850.9    0.00 
 144   11:10   0.00   63.2    44    5.1     1     8.6   850.8    0.00 
 144   11:20   0.00   64.8    40    3.1    45     6.7   850.7    0.00 
 144   11:30   0.00   65.4    38    3.4    20     9.6   850.6    0.00 
 144   11:40   0.00   65.7    40    3.7   337     7.2   850.6    0.00 
 144   11:50   0.00   66.3    36    6.1    52    10.4   850.5    0.00 
 144   12:00   0.00   66.0    38    3.9   338     8.2   850.4    0.00 
 144   12:10   0.00   66.8    38    3.3   208     8.0   850.2    0.00 
 144   12:20   0.00   67.5    34    3.6    59     8.6   850.1    0.00 
 144   12:30   0.00   67.6    33    5.7    45    11.2   849.9    0.00 
 144   12:40   0.00   66.7    34    6.0    14    10.1   849.8    0.00 
 144   12:50   0.00   67.4    33    4.6    42     9.0   849.7    0.00 
 144   13:00   0.00   68.7    31    2.7    86     8.3   849.6    0.00 
 144   13:10   0.00   69.6    31    2.0   174     4.8   849.4    0.00 
 144   13:20   0.00   70.2    36    3.8   210     8.8   849.2    0.00 
 144   13:30   0.00   70.2    32    6.0   170     9.0   849.1    0.00 
 144   13:40   0.00   70.0    32    2.4   252     6.3   849.1    0.00 
 144   13:50   0.00   70.3    33    3.1   298     7.6   848.9    0.00 
 144   14:00   0.00   70.1    36    6.2   284    14.5   848.7    0.00 
 144   14:10   0.00   69.3    30    5.1   324    11.8   848.7    0.00 
 144   14:20   0.00   70.4    28    3.8   344     8.4   848.6    0.00 
 144   14:30   0.00   69.3    33    3.1   301     8.6   848.4    0.00 
 144   14:40   0.00   70.4    27    4.2   349     8.6   848.4    0.00 
 144   14:50   0.00   70.1    26    4.7    18     9.8   848.3    0.00 
 144   15:00   0.00   70.0    30    1.5   286     3.3   848.2    0.00 
 144   15:10   0.00   68.9    36    3.7   299     6.6   848.2    0.00 
 144   15:20   0.00   70.3    30    1.3   313     4.5   848.1    0.00 
 144   15:30   0.00   70.6    36    4.1   255     8.2   848.0    0.00 
 144   15:40   0.00   66.4    43   10.1   274    20.3   847.9    0.00 
 144   15:50   0.00   64.2    48   13.7   269    20.2   847.9    0.00 
 144   16:00   0.00   64.0    46   13.7   271    19.0   847.9    0.00 
 144   16:10   0.00   64.7    44   12.7   268    18.2   847.9    0.00 
 144   16:20   0.00   64.5    45   12.3   267    17.8   847.9    0.00 
 144   16:30   0.00   65.3    44   12.7   266    17.2   848.0    0.00 
 144   16:40   0.00   64.6    46   10.5   262    16.8   847.9    0.00 
 144   16:50   0.00   64.1    45   10.1   265    14.8   848.0    0.00 
 144   17:00   0.00   63.8    45   10.1   269    13.8   848.1    0.00 
 144   17:10   0.00   63.7    43   11.7   281    17.4   848.1    0.00 
 144   17:20   0.00   63.3    48   17.4   274    25.6   848.1    0.00 
 144   17:30   0.00   59.3    59   18.8   308    28.0   848.2    0.00 
 144   17:40   0.00   58.0    62   17.6   301    27.3   848.3    0.00 
 144   17:50   0.00   58.5    56   20.9   302    28.1   848.4    0.00 
 144   18:00   0.00   59.4    49   22.9   326    33.3   848.7    0.00 
 144   18:10   0.00   59.3    50   17.5   338    25.0   849.3    0.00 
 144   18:20   0.00   58.6    53   13.9   350    18.9   849.5    0.00 
 144   18:30   0.00   57.9    58   10.3     6    17.0   849.3    0.00 
 144   18:40   0.00   57.7    61   11.5   358    16.2   849.2    0.00 
 144   18:50   0.00   56.9    64   10.9   354    15.5   849.3    0.00 
 144   19:00   0.00   56.9    62    9.3   353    12.8   849.5    0.00 
 144   19:10   0.00   56.4    64   10.8   350    17.3   849.6    0.00 
 144   19:20   0.00   56.4    65   12.1   349    17.5   849.6    0.00 
 144   19:30   0.00   55.9    67   10.2   346    15.9   849.8    0.00 
 144   19:40   0.00   55.6    64    8.5   349    12.4   849.8    0.00 
 144   19:50   0.00   55.4    62    5.9   353     7.8   849.7    0.00 
 144   20:00   0.00   55.1    62    4.2   341     7.6   849.7    0.00 
 144   20:10   0.00   53.9    66    0.9   322     3.1   849.8    0.00 
 144   20:20   0.00   54.2    66    1.3   210     5.2   850.0    0.00 
 144   20:30   0.00   53.9    68    4.3   186     5.9   850.0    0.00 
 144   20:40   0.00   51.7    74    2.2   203     5.7   849.9    0.00 
 144   20:50   0.00   53.4    68    0.2   203     1.6   850.0    0.00 
 144   21:00   0.00   53.2    68    1.7   203     2.6   850.2    0.00 
 144   21:10   0.00   53.8    65    1.4   203     1.9   850.3    0.00 
 144   21:20   0.00   53.8    64    1.6   198     2.8   850.1    0.00 
 144   21:30   0.00   53.1    64    0.6   199     2.3   850.0    0.00 
 144   21:40   0.00   51.0    70    3.5   210     5.1   850.0    0.00 
 144   21:50   0.00   46.8    80    4.2   243     5.3   850.2    0.00 
 144   22:00   0.00   47.0    82    4.4   254     5.6   850.2    0.00 
 144   22:10   0.00   47.1    83    5.4   262     6.8   850.2    0.00 
 144   22:20   0.00   47.2    84    3.5   268     5.7   850.3    0.00 
 144   22:30   0.00   47.6    84    2.3   259     3.0   850.5    0.00 
 144   22:40   0.00   47.8    84    3.0   244     4.7   850.4    0.00 
 144   22:50   0.00   47.1    86    3.8   225     4.9   850.5    0.00 
 144   23:00   0.00   46.8    86    3.6   231     4.6   850.4    0.00 
 144   23:10   0.00   46.7    87    2.1   240     2.8   850.4    0.00 
 144   23:20   0.00   47.9    83    3.4   248     4.4   850.5    0.00 
 144   23:30   0.00   47.4    83    3.3   242     3.9   850.5    0.00 
 144   23:40   0.00   47.8    83    4.2   226     5.8   850.5    0.00 
 144   23:50   0.00   47.1    84    4.8   216     5.6   850.6    0.00 
 145    0:00   0.00   47.9    82    5.0   181     5.8   850.5    0.00 
 145    0:10   0.00   48.7    79    3.2   163     5.0   850.6    0.00 
 145    0:20   0.00   48.8    78    2.2   189     3.4   850.6    0.00 
 145    0:30   0.00   49.3    78    2.0   195     2.7   850.6    0.00 
 145    0:40   0.00   48.5    77    3.9   213     4.6   850.6    0.00 
 145    0:50   0.00   44.8    81    4.1   252     5.8   850.5    0.00 
 145    1:00   0.00   44.0    84    1.0   258     2.1   850.7    0.00 
 145    1:10   0.00   43.9    82    0.5   258     1.5   850.7    0.00 
 145    1:20   0.00   43.6    83    2.9   257     6.6   850.6    0.00 
 145    1:30   0.00   42.8    85    5.3   242     6.6   850.6    0.00 
 145    1:40   0.00   42.5    86    4.4   250     5.7   850.7    0.00 
 145    1:50   0.00   42.4    86    4.2   255     5.1   850.7    0.00 
 145    2:00   0.00   41.8    87    4.5   261     5.3   850.7    0.00 
 145    2:10   0.00   42.6    88    2.4   285     4.2   850.7    0.00 
 145    2:20   0.00   41.7    85    3.8   264     4.8   850.7    0.00 
 145    2:30   0.00   40.9    87    1.4   254     3.1   850.7    0.00 
 145    2:40   0.00   41.3    87    1.6   254     2.9   850.7    0.00 
 145    2:50   0.00   42.0    86    0.3   254     2.1   850.8    0.00 
 145    3:00   0.00   41.5    87    0.4   254     1.2   850.9    0.00 
 145    3:10   0.00   41.9    88    1.5   254     2.5   850.9    0.00 
 145    3:20   0.00   42.2    86    3.0   254     4.2   850.8    0.00 
 145    3:30   0.00   39.9    86    4.5   255     5.2   850.9    0.00 
 145    3:40   0.00   38.8    88    3.5   254     4.6   850.8    0.00 
 145    3:50   0.00   40.2    89    3.2   254     3.7   850.7    0.00 
 145    4:00   0.00   39.3    87    3.7   258     4.7   850.7    0.00 
 145    4:10   0.00   36.8    89    4.4   279     5.0   850.8    0.00 
 145    4:20   0.00   36.6    90    3.9   281     4.7   850.8    0.00 
 145    4:30   0.00   36.6    90    4.3   264     5.1   850.8    0.00 
 145    4:40   0.00   37.1    91    4.7   260     5.5   851.0    0.00 
 145    4:50   0.00   37.5    91    4.5   238     5.2   851.0    0.00 
 145    5:00   0.00   38.6    91    4.3   230     4.9   851.1    0.00 
 145    5:10   0.00   39.7    91    3.8   245     5.2   851.2    0.00 
 145    5:20   0.00   41.2    89    2.8   247     3.7   851.3    0.00 
 145    5:30   0.00   43.1    88    2.4   260     3.4   851.3    0.00 
 145    5:40   0.00   44.9    86    2.1   266     2.8   851.2    0.00 
 145    5:50   0.00   46.8    84    2.3   265     3.8   851.2    0.00 
 145    6:00   0.00   48.5    82    3.0   259     4.2   851.2    0.00 
 145    6:10   0.00   50.1    78    1.0   254     3.5   851.2    0.00 
 145    6:20   0.00   52.2    72    2.5    72     4.5   851.1    0.00 
 145    6:30   0.00   51.1    73    3.3    92     5.4   851.2    0.00 
 145    6:40   0.00   51.1    72    4.1    85     5.5   851.2    0.00 
 145    6:50   0.00   51.7    72    4.2    84     6.2   851.3    0.00 
 145    7:00   0.00   52.6    71    3.8    89     5.6   851.3    0.00 
 145    7:10   0.00   53.5    70    3.3    91     5.6   851.3    0.00 
 145    7:20   0.00   54.6    66    3.0    66     4.9   851.4    0.00 
 145    7:30   0.00   55.0    65    2.6    34     5.7   851.5    0.00 
 145    7:40   0.00   56.1    62    1.9    42     3.4   851.6    0.00 
 145    7:50   0.00   57.1    61    1.8    32     4.1   851.6    0.00 
 145    8:00   0.00   57.7    59    1.4    32     3.4   851.7    0.00 
 145    8:10   0.00   59.4    55    1.2    38     3.1   851.8    0.00 
 145    8:20   0.00   59.9    54    1.9    34     3.8   851.8    0.00 
 145    8:30   0.00   61.5    51    1.4    83     4.7   851.8    0.00 
 145    8:40   0.00   61.9    48    1.4    10     5.0   851.9    0.00 
 145    8:50   0.00   63.6    43    1.2    38     3.9   852.0    0.00 
 145    9:00   0.00   63.3    44    2.1   280     4.1   852.0    0.00 
 145    9:10   0.00   63.6    43    2.2   359     4.7   852.0    0.00 
 145    9:20   0.00   64.4    39    2.2   357     5.6   851.9    0.00 
 145    9:30   0.00   65.2    40    3.0   337     5.8   851.9    0.00 
 145    9:40   0.00   67.1    36    1.6     4     4.9   851.9    0.00 
 145    9:50   0.00   67.3    33    1.9    72     6.0   851.9    0.00 

Return to Sand Spring Valley graphs page.


Western Regional Climate Center,wrcc@dri.edu